Time;durP1;ratioP1;P1;durP2;ratioP2;P2;SDS_P1;SDS_P2;PMS_P1;PMS_P2;Temp;Humidity;BMP_temperature;BMP_pressure;BME280_temperature;BME280_humidity;BME280_pressure;Samples;Min_cycle;Max_cycle;Signal;HPM_P1;HPM_P2
2021/08/14 00:00:57;;;;;;;14.50;2.83;;;16.00;99.90;;;;;;5087892;28;20056;-69
2021/08/14 00:03:24;;;;;;;8.27;2.80;;;15.90;99.90;;;;;;5088900;28;20074;-68
2021/08/14 00:05:50;;;;;;;14.68;3.40;;;16.00;99.90;;;;;;5090802;28;20060;-68
2021/08/14 00:08:15;;;;;;;11.05;2.40;;;16.00;99.90;;;;;;5092069;28;20067;-68
2021/08/14 00:10:41;;;;;;;8.32;2.25;;;16.10;99.90;;;;;;5082179;28;20028;-68
2021/08/14 00:13:06;;;;;;;10.05;2.85;;;16.10;99.90;;;;;;5091927;28;20075;-69
2021/08/14 00:15:32;;;;;;;12.10;2.60;;;16.10;99.90;;;;;;5082484;28;20036;-68
2021/08/14 00:17:58;;;;;;;7.35;2.33;;;16.10;99.90;;;;;;5091974;28;20031;-68
2021/08/14 00:20:23;;;;;;;12.73;2.97;;;16.10;99.90;;;;;;5081822;28;20081;-68
2021/08/14 00:22:49;;;;;;;13.98;2.63;;;16.10;99.90;;;;;;5091952;28;20056;-68
2021/08/14 00:25:15;;;;;;;11.35;2.63;;;16.10;99.90;;;;;;5091858;28;20455;-69
2021/08/14 00:27:40;;;;;;;12.05;2.38;;;16.20;99.90;;;;;;5088376;28;20040;-68
2021/08/14 00:30:06;;;;;;;10.85;3.47;;;16.10;99.90;;;;;;5090582;28;20028;-69
2021/08/14 00:32:32;;;;;;;14.15;2.60;;;16.20;99.90;;;;;;5083967;28;20055;-69
2021/08/14 00:34:57;;;;;;;12.52;2.47;;;16.20;99.90;;;;;;5083886;28;20040;-68
2021/08/14 00:37:23;;;;;;;12.95;2.60;;;16.20;99.90;;;;;;5091775;28;20126;-68
2021/08/14 00:39:50;;;;;;;11.10;2.20;;;16.20;99.90;;;;;;5091956;28;20691;-68
2021/08/14 00:42:16;;;;;;;10.05;2.35;;;16.20;99.90;;;;;;5091305;28;20044;-69
2021/08/14 00:44:42;;;;;;;16.25;2.78;;;16.20;99.90;;;;;;5091787;28;20126;-68
2021/08/14 00:47:07;;;;;;;12.75;2.35;;;16.10;99.90;;;;;;5091172;28;20066;-69
2021/08/14 00:49:33;;;;;;;13.80;2.45;;;16.10;99.90;;;;;;5091852;28;20093;-68
2021/08/14 00:51:59;;;;;;;15.18;3.20;;;16.10;99.90;;;;;;5091345;28;20024;-69
2021/08/14 00:54:25;;;;;;;9.73;2.28;;;16.10;99.90;;;;;;5091352;28;20074;-68
2021/08/14 00:56:50;;;;;;;21.52;2.97;;;16.00;99.90;;;;;;5079377;28;20049;-69
2021/08/14 00:59:16;;;;;;;13.40;2.70;;;16.10;99.90;;;;;;5088141;28;20043;-68
2021/08/14 01:01:42;;;;;;;13.38;2.70;;;16.00;99.90;;;;;;5080086;28;20035;-69
2021/08/14 01:04:15;;;;;;;14.35;2.75;;;16.00;99.90;;;;;;5091533;28;20035;-69
2021/08/14 01:06:41;;;;;;;10.75;2.83;;;16.10;99.90;;;;;;5090830;28;20427;-69
2021/08/14 01:09:06;;;;;;;15.30;3.08;;;16.10;99.90;;;;;;5091064;28;20043;-68
2021/08/14 01:11:32;;;;;;;10.35;2.20;;;16.10;99.90;;;;;;5091368;28;20051;-69
2021/08/14 01:13:58;;;;;;;19.65;4.07;;;16.10;99.90;;;;;;5091046;28;20720;-69
2021/08/14 01:16:27;;;;;;;12.52;2.40;;;16.10;99.90;;;;;;5083499;28;20136;-69
2021/08/14 01:18:53;;;;;;;8.98;2.20;;;16.10;99.90;;;;;;5091379;28;20032;-69
2021/08/14 01:21:20;;;;;;;9.57;2.60;;;16.10;99.90;;;;;;5091160;28;20081;-73
2021/08/14 01:23:50;;;;;;;9.40;2.30;;;16.20;99.90;;;;;;5081269;28;20506;-69
2021/08/14 01:26:16;;;;;;;9.73;3.05;;;16.20;99.90;;;;;;5090353;28;20036;-69
2021/08/14 01:28:43;;;;;;;11.82;3.20;;;16.30;99.90;;;;;;5090202;28;20016;-69
2021/08/14 01:31:10;;;;;;;15.60;3.45;;;16.30;99.90;;;;;;5090614;28;20119;-68
2021/08/14 01:33:39;;;;;;;13.45;2.17;;;16.30;99.90;;;;;;5080787;28;20048;-69
2021/08/14 01:36:06;;;;;;;20.88;3.63;;;16.30;99.90;;;;;;5081109;28;20119;-69
2021/08/14 01:38:32;;;;;;;8.40;2.45;;;16.30;99.90;;;;;;5073871;28;20040;-69
2021/08/14 01:40:58;;;;;;;13.90;3.28;;;16.30;99.90;;;;;;5073247;28;20035;-69
2021/08/14 01:43:23;;;;;;;12.75;3.42;;;16.30;99.90;;;;;;5090087;28;20081;-69
2021/08/14 01:45:50;;;;;;;18.17;3.42;;;16.30;99.90;;;;;;5081034;28;20036;-69
2021/08/14 01:48:17;;;;;;;13.73;3.30;;;16.30;99.90;;;;;;5090483;28;20179;-69
2021/08/14 01:50:43;;;;;;;14.00;2.65;;;16.30;99.90;;;;;;5089431;28;20085;-69
2021/08/14 01:53:09;;;;;;;8.90;2.40;;;16.30;99.90;;;;;;5080955;28;20492;-69
2021/08/14 01:55:35;;;;;;;14.63;2.78;;;16.40;99.90;;;;;;5090350;28;20047;-69
2021/08/14 01:58:03;;;;;;;12.65;2.20;;;16.30;99.90;;;;;;5083967;28;20026;-68
2021/08/14 02:00:29;;;;;;;15.10;2.92;;;16.30;99.90;;;;;;5088984;28;20457;-69
2021/08/14 02:02:56;;;;;;;13.27;3.58;;;16.30;99.90;;;;;;5090296;28;20028;-68
2021/08/14 02:05:22;;;;;;;16.73;4.03;;;16.30;99.90;;;;;;5090032;28;20069;-69
2021/08/14 02:07:47;;;;;;;16.30;3.45;;;16.30;99.90;;;;;;5084224;28;20170;-69
2021/08/14 02:10:13;;;;;;;18.40;3.03;;;16.30;99.90;;;;;;5090485;28;20115;-68
2021/08/14 02:12:39;;;;;;;12.73;2.95;;;16.30;99.90;;;;;;5089547;28;20263;-69
2021/08/14 02:15:05;;;;;;;15.45;3.83;;;16.20;99.90;;;;;;5079987;28;20043;-69
2021/08/14 02:17:31;;;;;;;17.17;3.45;;;16.20;99.90;;;;;;5089485;28;20028;-69
2021/08/14 02:19:57;;;;;;;10.35;3.28;;;16.30;99.90;;;;;;5089830;28;20161;-68
2021/08/14 02:22:22;;;;;;;14.38;3.42;;;16.20;99.90;;;;;;5083793;28;20139;-69
2021/08/14 02:24:48;;;;;;;10.43;3.90;;;16.20;99.90;;;;;;5089549;28;20032;-69
2021/08/14 02:27:13;;;;;;;15.40;3.17;;;16.20;99.90;;;;;;5088710;28;20563;-69
2021/08/14 02:29:39;;;;;;;22.20;3.50;;;16.10;99.90;;;;;;5088865;28;20035;-69
2021/08/14 02:32:05;;;;;;;17.48;3.65;;;16.10;99.90;;;;;;5090170;28;20074;-69
2021/08/14 02:34:30;;;;;;;12.63;2.70;;;16.20;99.90;;;;;;5076644;28;20059;-69
2021/08/14 02:36:56;;;;;;;16.92;3.65;;;16.10;99.90;;;;;;5068522;28;20388;-69
2021/08/14 02:39:21;;;;;;;19.08;4.18;;;16.10;99.90;;;;;;5069475;28;20028;-69
2021/08/14 02:41:47;;;;;;;21.38;3.47;;;16.00;99.90;;;;;;5069237;28;20046;-69
2021/08/14 02:44:12;;;;;;;10.88;2.72;;;16.00;99.90;;;;;;5068917;28;20068;-69
2021/08/14 02:46:38;;;;;;;19.75;4.43;;;16.00;99.90;;;;;;5064192;28;20485;-69
2021/08/14 02:49:03;;;;;;;18.17;3.42;;;16.00;99.90;;;;;;5069255;28;20089;-69
2021/08/14 02:51:29;;;;;;;14.02;3.83;;;15.90;99.90;;;;;;5069230;28;20115;-68
2021/08/14 02:53:55;;;;;;;11.82;2.85;;;15.90;99.90;;;;;;5066713;28;20028;-69
2021/08/14 02:56:20;;;;;;;14.13;3.30;;;16.00;99.90;;;;;;5066551;28;20066;-69
2021/08/14 02:58:46;;;;;;;11.90;3.28;;;15.90;99.90;;;;;;5067510;28;20060;-69
2021/08/14 03:01:11;;;;;;;18.70;3.15;;;16.00;99.90;;;;;;5069670;28;20041;-69
2021/08/14 03:03:37;;;;;;;23.40;4.15;;;16.00;99.90;;;;;;5067536;28;20037;-68
2021/08/14 03:06:03;;;;;;;12.77;3.60;;;15.90;99.90;;;;;;5068567;28;20746;-69
2021/08/14 03:08:28;;;;;;;9.85;3.55;;;16.00;99.90;;;;;;5069111;28;20047;-68
2021/08/14 03:10:54;;;;;;;15.60;3.35;;;15.90;99.90;;;;;;5068438;28;20028;-69
2021/08/14 03:13:20;;;;;;;16.27;3.30;;;16.00;99.90;;;;;;5068951;28;20025;-69
2021/08/14 03:15:45;;;;;;;16.23;3.28;;;15.90;99.90;;;;;;5068116;28;20481;-69
2021/08/14 03:18:11;;;;;;;15.05;3.50;;;15.90;99.90;;;;;;5069433;28;20039;-69
2021/08/14 03:20:37;;;;;;;16.55;3.65;;;15.90;99.90;;;;;;5067724;28;20033;-69
2021/08/14 03:23:02;;;;;;;14.60;3.30;;;15.90;99.90;;;;;;5067311;28;20033;-69
2021/08/14 03:25:28;;;;;;;12.48;3.50;;;15.90;99.90;;;;;;5068581;28;20548;-69
2021/08/14 03:27:54;;;;;;;17.33;3.40;;;15.90;99.90;;;;;;5066537;28;20045;-69
2021/08/14 03:30:20;;;;;;;14.60;3.50;;;15.90;99.90;;;;;;5068354;28;20036;-69
2021/08/14 03:32:45;;;;;;;12.55;3.58;;;15.90;99.90;;;;;;5067213;28;20041;-69
2021/08/14 03:35:13;;;;;;;15.32;3.22;;;15.90;99.90;;;;;;5068720;28;20142;-69
2021/08/14 03:37:39;;;;;;;12.45;3.65;;;15.80;99.90;;;;;;5067257;28;20064;-69
2021/08/14 03:40:07;;;;;;;14.18;3.40;;;15.80;99.90;;;;;;5069657;28;20038;-69
2021/08/14 03:42:32;;;;;;;13.50;3.53;;;15.80;99.90;;;;;;5072300;28;20107;-68
2021/08/14 03:44:58;;;;;;;18.83;3.28;;;15.80;99.90;;;;;;5071263;28;20136;-69
2021/08/14 03:47:23;;;;;;;11.45;4.20;;;15.80;99.90;;;;;;5072370;28;20040;-69
2021/08/14 03:49:49;;;;;;;18.42;3.70;;;15.80;99.90;;;;;;5072041;28;20045;-69
2021/08/14 03:52:14;;;;;;;7.55;2.90;;;15.70;99.90;;;;;;5072759;28;20047;-68
2021/08/14 03:54:42;;;;;;;14.20;3.28;;;15.80;99.90;;;;;;5072547;28;20054;-69
2021/08/14 03:57:08;;;;;;;12.70;3.20;;;15.70;99.90;;;;;;5071774;28;20426;-69
2021/08/14 03:59:34;;;;;;;12.90;3.60;;;15.70;99.90;;;;;;5071234;28;20481;-69
2021/08/14 04:01:59;;;;;;;13.43;2.88;;;15.70;99.90;;;;;;5072389;28;20033;-69
2021/08/14 04:04:25;;;;;;;8.50;2.97;;;15.70;99.90;;;;;;5072136;28;20078;-68
2021/08/14 04:06:50;;;;;;;8.45;2.60;;;15.70;99.90;;;;;;5064095;28;20587;-69
2021/08/14 04:09:16;;;;;;;10.80;2.72;;;15.70;99.90;;;;;;5071739;28;20032;-69
2021/08/14 04:11:43;;;;;;;13.57;4.15;;;15.60;99.90;;;;;;5071908;28;20033;-68
2021/08/14 04:14:09;;;;;;;13.77;2.85;;;15.60;99.90;;;;;;5070059;28;20036;-69
2021/08/14 04:16:35;;;;;;;20.33;4.07;;;15.60;99.90;;;;;;5071663;28;20031;-69
2021/08/14 04:19:00;;;;;;;24.10;3.42;;;15.60;99.90;;;;;;5069812;28;20400;-69
2021/08/14 04:21:26;;;;;;;10.07;3.35;;;15.50;99.90;;;;;;5071690;28;20119;-69
2021/08/14 04:23:52;;;;;;;14.73;3.60;;;15.50;99.90;;;;;;5070042;28;20155;-69
2021/08/14 04:26:18;;;;;;;12.18;2.65;;;15.40;99.90;;;;;;5071003;28;20101;-69
2021/08/14 04:28:43;;;;;;;16.10;3.83;;;15.40;99.90;;;;;;5070749;28;20672;-69
2021/08/14 04:31:09;;;;;;;10.85;2.38;;;15.30;99.90;;;;;;5071589;28;20119;-69
2021/08/14 04:33:34;;;;;;;8.52;2.67;;;15.30;99.90;;;;;;5071666;28;20033;-69
2021/08/14 04:36:00;;;;;;;8.27;2.92;;;15.30;99.90;;;;;;5071062;28;20024;-69
2021/08/14 04:38:26;;;;;;;9.00;2.67;;;15.20;99.90;;;;;;5071730;28;20052;-68
2021/08/14 04:40:51;;;;;;;12.18;2.38;;;15.20;99.90;;;;;;5070811;28;20028;-69
2021/08/14 04:43:17;;;;;;;13.10;2.42;;;15.10;99.90;;;;;;5070584;28;20551;-69
2021/08/14 04:45:42;;;;;;;15.80;3.42;;;15.10;99.90;;;;;;5070900;28;20043;-69
2021/08/14 04:48:08;;;;;;;12.82;2.85;;;15.00;99.90;;;;;;5070438;28;20035;-69
2021/08/14 04:50:33;;;;;;;14.23;3.75;;;15.00;99.90;;;;;;5070306;28;20021;-68
2021/08/14 04:52:59;;;;;;;12.35;3.22;;;15.00;99.90;;;;;;5070368;28;20036;-69
2021/08/14 04:55:25;;;;;;;11.27;3.50;;;15.00;99.90;;;;;;5090424;28;20544;-69
2021/08/14 04:57:50;;;;;;;12.55;2.50;;;15.00;99.90;;;;;;5090380;28;20128;-68
2021/08/14 05:00:16;;;;;;;10.07;2.80;;;15.10;99.90;;;;;;5090377;28;20408;-69
2021/08/14 05:02:42;;;;;;;10.25;2.92;;;15.00;99.90;;;;;;5085355;28;20128;-68
2021/08/14 05:05:08;;;;;;;8.90;3.40;;;15.00;99.90;;;;;;5090331;28;20032;-69
2021/08/14 05:07:34;;;;;;;12.85;2.83;;;15.00;99.90;;;;;;5090823;28;20581;-68
2021/08/14 05:10:00;;;;;;;19.02;3.90;;;15.00;99.90;;;;;;5080882;28;20058;-69
2021/08/14 05:12:26;;;;;;;11.23;2.45;;;15.00;99.90;;;;;;5089811;28;20119;-68
2021/08/14 05:14:51;;;;;;;10.85;2.80;;;15.00;99.90;;;;;;5090695;28;20186;-69
2021/08/14 05:17:17;;;;;;;21.83;4.45;;;15.00;99.90;;;;;;5090217;28;20032;-69
2021/08/14 05:19:43;;;;;;;15.93;3.47;;;15.10;99.90;;;;;;5089822;28;20442;-68
2021/08/14 05:22:08;;;;;;;11.70;2.92;;;15.10;99.90;;;;;;5088773;28;20025;-69
2021/08/14 05:24:34;;;;;;;18.83;3.55;;;15.10;99.90;;;;;;5090802;28;20104;-69
2021/08/14 05:26:59;;;;;;;14.50;3.75;;;15.10;99.90;;;;;;5090054;28;20032;-68
2021/08/14 05:29:25;;;;;;;13.88;2.85;;;15.20;99.90;;;;;;5090094;28;20408;-69
2021/08/14 05:31:50;;;;;;;16.63;2.95;;;15.20;99.90;;;;;;5090258;28;20510;-69
2021/08/14 05:34:16;;;;;;;17.02;3.25;;;15.20;99.90;;;;;;5080156;28;20035;-69
2021/08/14 05:36:42;;;;;;;13.52;3.60;;;15.20;99.90;;;;;;5090145;28;20044;-69
2021/08/14 05:39:07;;;;;;;10.45;3.22;;;15.20;99.90;;;;;;5090626;28;20028;-68
2021/08/14 05:41:38;;;;;;;14.35;3.17;;;15.20;99.90;;;;;;5074354;28;20056;-69
2021/08/14 05:44:04;;;;;;;8.13;2.78;;;15.20;99.90;;;;;;5090552;28;20051;-68
2021/08/14 05:46:30;;;;;;;12.70;3.30;;;15.30;99.90;;;;;;5089443;28;20043;-68
2021/08/14 05:48:56;;;;;;;13.35;3.72;;;15.40;99.90;;;;;;5080336;28;20392;-68
2021/08/14 05:51:23;;;;;;;14.13;2.90;;;15.40;99.90;;;;;;5089738;28;20060;-69
2021/08/14 05:53:49;;;;;;;11.25;3.05;;;15.40;99.90;;;;;;5081245;28;20046;-69
2021/08/14 05:56:15;;;;;;;15.27;3.15;;;15.50;99.90;;;;;;5089653;28;20047;-71
2021/08/14 05:58:40;;;;;;;12.45;3.78;;;15.60;99.90;;;;;;5090726;28;20124;-68
2021/08/14 06:01:06;;;;;;;14.75;3.00;;;15.80;99.90;;;;;;5090688;28;20024;-68
2021/08/14 06:03:34;;;;;;;17.23;2.75;;;15.90;99.90;;;;;;5080002;28;20336;-69
2021/08/14 06:06:00;;;;;;;13.20;3.15;;;16.10;99.90;;;;;;5089964;28;20039;-69
2021/08/14 06:08:26;;;;;;;25.13;4.70;;;16.20;99.90;;;;;;5089904;28;20032;-69
2021/08/14 06:10:52;;;;;;;18.05;3.60;;;16.40;99.90;;;;;;5090665;28;20024;-69
2021/08/14 06:13:17;;;;;;;13.18;3.40;;;16.50;99.90;;;;;;5089949;28;20435;-68
2021/08/14 06:15:43;;;;;;;12.27;3.45;;;16.70;99.90;;;;;;5081376;28;20387;-68
2021/08/14 06:18:11;;;;;;;11.27;3.45;;;16.80;99.90;;;;;;5089779;28;20032;-69
2021/08/14 06:20:37;;;;;;;12.63;4.10;;;16.90;99.90;;;;;;5089277;28;20065;-69
2021/08/14 06:23:03;;;;;;;25.05;5.15;;;17.00;99.90;;;;;;5089627;28;20111;-69
2021/08/14 06:25:28;;;;;;;23.45;5.60;;;17.10;99.90;;;;;;5079328;28;20102;-69
2021/08/14 06:27:54;;;;;;;22.08;5.72;;;17.10;99.90;;;;;;5089236;28;20496;-69
2021/08/14 06:30:19;;;;;;;23.85;4.72;;;17.20;99.90;;;;;;5088982;28;20036;-69
2021/08/14 06:32:45;;;;;;;21.23;4.93;;;17.20;99.90;;;;;;5072332;28;20040;-69
2021/08/14 06:35:11;;;;;;;21.02;5.32;;;17.20;99.90;;;;;;5079299;28;20038;-69
2021/08/14 06:37:41;;;;;;;16.15;4.55;;;17.10;99.90;;;;;;5088517;28;20028;-69
2021/08/14 06:40:08;;;;;;;23.27;5.95;;;17.10;99.90;;;;;;5088885;28;20044;-69
2021/08/14 06:42:33;;;;;;;20.13;4.78;;;17.10;99.90;;;;;;5088676;28;20453;-69
2021/08/14 06:44:59;;;;;;;38.25;9.77;;;17.10;99.90;;;;;;5089820;28;20055;-69
2021/08/14 06:47:24;;;;;;;23.45;6.55;;;17.10;99.90;;;;;;5088967;28;20145;-70
2021/08/14 06:49:50;;;;;;;37.67;7.22;;;17.10;99.90;;;;;;5088881;28;20528;-68
2021/08/14 06:52:15;;;;;;;30.48;8.85;;;17.10;99.90;;;;;;5089011;28;20397;-68
2021/08/14 06:54:41;;;;;;;32.63;8.60;;;17.10;99.90;;;;;;5089198;28;20637;-69
2021/08/14 06:57:06;;;;;;;33.33;7.30;;;17.10;99.90;;;;;;5088837;28;20067;-68
2021/08/14 06:59:32;;;;;;;30.08;8.30;;;17.10;99.90;;;;;;5087686;28;20028;-70
2021/08/14 07:01:57;;;;;;;45.08;8.23;;;17.10;99.90;;;;;;5077062;28;20044;-68
2021/08/14 07:04:23;;;;;;;31.27;8.20;;;17.10;99.90;;;;;;5088564;28;20036;-69
2021/08/14 07:06:49;;;;;;;40.60;8.48;;;17.10;99.90;;;;;;5061955;28;20045;-69
2021/08/14 07:09:14;;;;;;;34.50;9.00;;;17.10;99.90;;;;;;5068511;28;20036;-69
2021/08/14 07:11:43;;;;;;;32.35;8.95;;;17.20;99.90;;;;;;5068565;28;20415;-69
2021/08/14 07:14:08;;;;;;;39.97;10.30;;;17.30;99.90;;;;;;5070176;28;20028;-69
2021/08/14 07:16:34;;;;;;;50.65;9.40;;;17.30;99.90;;;;;;5073523;28;20388;-69
2021/08/14 07:18:59;;;;;;;39.67;9.00;;;17.30;99.90;;;;;;5073711;28;20500;-69
2021/08/14 07:21:25;;;;;;;36.35;9.05;;;17.30;99.90;;;;;;5074602;28;20036;-69
2021/08/14 07:23:50;;;;;;;35.95;10.80;;;17.40;99.90;;;;;;5093184;28;20031;-71
2021/08/14 07:26:16;;;;;;;36.70;9.18;;;17.50;99.90;;;;;;5085905;28;20079;-69
2021/08/14 07:28:41;;;;;;;41.80;10.25;;;17.60;99.90;;;;;;5085344;28;20092;-70
2021/08/14 07:31:07;;;;;;;40.67;10.32;;;17.70;99.90;;;;;;5095548;28;20055;-69
2021/08/14 07:33:33;;;;;;;38.10;9.25;;;17.90;99.90;;;;;;5096064;28;20786;-69
2021/08/14 07:35:58;;;;;;;38.13;9.75;;;18.00;99.90;;;;;;5094900;28;20459;-70
2021/08/14 07:38:24;;;;;;;33.22;9.70;;;18.10;99.90;;;;;;5088933;28;20118;-69
2021/08/14 07:40:49;;;;;;;35.08;10.85;;;18.30;99.90;;;;;;5092613;28;20039;-69
2021/08/14 07:43:15;;;;;;;32.13;10.05;;;18.30;99.90;;;;;;5092519;28;20036;-69
2021/08/14 07:45:40;;;;;;;33.40;9.15;;;18.40;99.90;;;;;;5094243;28;20032;-69
2021/08/14 07:48:07;;;;;;;28.17;9.88;;;18.40;99.90;;;;;;5092585;28;20476;-71
2021/08/14 07:50:34;;;;;;;30.67;8.48;;;18.50;99.90;;;;;;5094248;28;20046;-69
2021/08/14 07:53:00;;;;;;;28.52;9.20;;;18.60;99.90;;;;;;5085286;28;20055;-70
2021/08/14 07:55:27;;;;;;;26.33;9.70;;;18.90;99.90;;;;;;5092765;28;20051;-69
2021/08/14 07:57:53;;;;;;;34.55;9.27;;;19.10;99.90;;;;;;5092457;28;20059;-69
2021/08/14 08:00:21;;;;;;;23.67;7.72;;;19.40;99.90;;;;;;5081231;28;20398;-69
2021/08/14 08:02:47;;;;;;;28.40;8.15;;;19.60;99.90;;;;;;5092346;28;20059;-69
2021/08/14 08:05:13;;;;;;;21.88;7.97;;;19.80;99.90;;;;;;5090901;28;20484;-69
2021/08/14 08:07:45;;;;;;;34.95;9.02;;;19.90;99.90;;;;;;5086020;28;20259;-69
2021/08/14 08:10:16;;;;;;;28.08;8.32;;;19.90;99.90;;;;;;5083053;28;20046;-69
2021/08/14 08:12:43;;;;;;;29.08;9.13;;;20.00;99.90;;;;;;5091787;28;20073;-69
2021/08/14 08:15:10;;;;;;;22.38;8.10;;;20.10;99.90;;;;;;5090773;28;20039;-69
2021/08/14 08:17:36;;;;;;;29.17;6.93;;;20.20;99.90;;;;;;5091073;28;20040;-69
2021/08/14 08:20:03;;;;;;;32.33;8.68;;;20.30;99.90;;;;;;5077371;28;20032;-70
2021/08/14 08:22:29;;;;;;;28.50;7.68;;;20.40;99.90;;;;;;5091935;28;20159;-69
2021/08/14 08:24:55;;;;;;;23.42;6.65;;;20.50;99.90;;;;;;5090775;28;20040;-70
2021/08/14 08:27:20;;;;;;;23.75;6.43;;;20.40;99.90;;;;;;5087541;28;20051;-69
2021/08/14 08:29:46;;;;;;;23.55;6.85;;;20.30;99.90;;;;;;5091368;28;20487;-69
2021/08/14 08:32:12;;;;;;;28.52;7.05;;;20.40;99.90;;;;;;5079410;28;20035;-69
2021/08/14 08:34:37;;;;;;;23.27;6.97;;;20.60;99.90;;;;;;5090853;28;20024;-69
2021/08/14 08:37:04;;;;;;;14.32;6.53;;;20.80;99.90;;;;;;5089411;28;20406;-69
2021/08/14 08:39:31;;;;;;;17.27;7.40;;;21.10;99.90;;;;;;5090460;28;20515;-69
2021/08/14 08:41:58;;;;;;;16.58;6.47;;;21.40;99.90;;;;;;5079857;28;20024;-69
2021/08/14 08:44:24;;;;;;;22.30;7.57;;;21.60;99.90;;;;;;5080452;28;20058;-69
2021/08/14 08:46:50;;;;;;;24.35;7.18;;;21.70;99.90;;;;;;5089488;28;20028;-69
2021/08/14 08:49:19;;;;;;;20.85;7.22;;;21.90;99.90;;;;;;5079661;28;20043;-68
2021/08/14 08:51:45;;;;;;;23.35;6.95;;;22.00;99.90;;;;;;5090292;28;20445;-69
2021/08/14 08:54:15;;;;;;;21.42;5.63;;;22.20;99.90;;;;;;5080537;28;20040;-68
2021/08/14 08:56:40;;;;;;;15.88;5.32;;;22.30;99.90;;;;;;5080512;28;20081;-69
2021/08/14 08:59:06;;;;;;;22.75;7.30;;;22.40;99.90;;;;;;5090440;28;20032;-68
2021/08/14 09:01:32;;;;;;;24.08;6.30;;;22.50;99.90;;;;;;5090367;28;20555;-68
2021/08/14 09:04:19;;;;;;;17.60;5.53;;;22.40;99.90;;;;;;5090408;28;20731;-68
2021/08/14 09:06:45;;;;;;;18.70;6.35;;;22.20;99.90;;;;;;5069737;28;20085;-69
2021/08/14 09:09:13;;;;;;;24.55;6.90;;;21.90;99.90;;;;;;5082518;28;20075;-68
2021/08/14 09:11:49;;;;;;;19.67;5.65;;;21.80;99.90;;;;;;5086289;28;20614;-69
2021/08/14 09:14:14;;;;;;;19.05;5.80;;;21.60;99.90;;;;;;5091284;28;20526;-68
2021/08/14 09:16:40;;;;;;;17.15;5.50;;;21.50;99.90;;;;;;5080450;28;20054;-68
2021/08/14 09:19:05;;;;;;;17.95;6.43;;;21.40;99.90;;;;;;5090846;28;20032;-69
2021/08/14 09:21:41;;;;;;;17.65;6.47;;;21.40;99.90;;;;;;5090013;28;20043;-71
2021/08/14 09:24:08;;;;;;;20.48;7.57;;;21.30;99.90;;;;;;5087496;28;20407;-69
2021/08/14 09:26:45;;;;;;;19.95;6.65;;;21.60;99.90;;;;;;5086095;28;20039;-69
2021/08/14 09:29:12;;;;;;;19.48;6.70;;;21.80;99.90;;;;;;5078152;28;20043;-68
2021/08/14 09:31:52;;;;;;;25.70;7.15;;;21.90;99.90;;;;;;5079620;28;20489;-69
2021/08/14 09:34:20;;;;;;;19.27;6.22;;;21.90;99.90;;;;;;5090156;28;20608;-69
2021/08/14 09:37:03;;;;;;;23.35;6.25;;;21.90;99.90;;;;;;5088256;28;20028;-68
2021/08/14 09:39:29;;;;;;;27.40;6.28;;;22.10;99.90;;;;;;5089842;28;20419;-69
2021/08/14 09:42:08;;;;;;;18.55;5.80;;;22.40;99.90;;;;;;5079267;28;20060;-68
2021/08/14 09:44:37;;;;;;;23.10;5.68;;;22.40;99.90;;;;;;5086345;28;20481;-69
2021/08/14 09:47:11;;;;;;;14.68;5.43;;;22.30;99.90;;;;;;5084830;28;20036;-68
2021/08/14 09:49:55;;;;;;;18.95;6.07;;;22.40;99.90;;;;;;5085934;28;20066;-68
2021/08/14 09:52:23;;;;;;;19.05;5.30;;;22.50;99.90;;;;;;5078940;28;20032;-68
2021/08/14 09:54:49;;;;;;;18.23;4.88;;;22.70;99.90;;;;;;5079188;28;20479;-69
2021/08/14 09:57:16;;;;;;;15.32;4.88;;;22.80;99.90;;;;;;5087929;28;20024;-69
2021/08/14 09:59:44;;;;;;;18.58;5.60;;;23.00;99.90;;;;;;5078638;28;20455;-69
2021/08/14 10:02:15;;;;;;;17.30;5.20;;;23.00;99.90;;;;;;5088529;28;20040;-69
2021/08/14 10:04:41;;;;;;;18.98;6.60;;;23.00;99.90;;;;;;5088748;28;20055;-68
2021/08/14 10:07:08;;;;;;;14.65;6.30;;;23.30;99.90;;;;;;5087899;28;20032;-69
2021/08/14 10:09:34;;;;;;;35.30;6.43;;;23.40;99.90;;;;;;5088417;28;20043;-69
2021/08/14 10:12:00;;;;;;;20.60;5.53;;;23.50;99.90;;;;;;5088157;28;20020;-69
2021/08/14 10:14:26;;;;;;;17.70;5.53;;;23.50;99.90;;;;;;5088220;28;20086;-69
2021/08/14 10:16:53;;;;;;;23.98;5.43;;;23.50;99.90;;;;;;5088176;28;20036;-69
2021/08/14 10:19:20;;;;;;;21.75;6.47;;;23.50;99.90;;;;;;5087908;28;20036;-68
2021/08/14 10:21:49;;;;;;;19.25;4.85;;;23.30;99.90;;;;;;5088222;28;20032;-68
2021/08/14 10:24:15;;;;;;;19.25;5.72;;;23.20;99.90;;;;;;5088070;28;20028;-69
2021/08/14 10:26:40;;;;;;;20.98;5.55;;;23.10;99.90;;;;;;5087734;28;20051;-69
2021/08/14 10:29:06;;;;;;;22.50;5.57;;;23.10;99.90;;;;;;5087903;28;20040;-68
2021/08/14 10:31:35;;;;;;;16.23;4.80;;;23.10;99.90;;;;;;5078197;28;20040;-69
2021/08/14 10:34:12;;;;;;;18.17;5.18;;;23.10;99.90;;;;;;5084433;28;20023;-69
2021/08/14 10:36:42;;;;;;;23.45;5.65;;;23.40;99.90;;;;;;5084516;28;20044;-68
2021/08/14 10:39:19;;;;;;;20.35;5.63;;;23.60;99.90;;;;;;5087988;28;20100;-68
2021/08/14 10:41:49;;;;;;;16.25;5.47;;;24.00;99.90;;;;;;5057476;28;20036;-68
2021/08/14 10:44:16;;;;;;;18.75;6.18;;;23.90;99.90;;;;;;5066929;28;20036;-68
2021/08/14 10:46:49;;;;;;;16.33;4.80;;;23.90;99.90;;;;;;5066880;28;20044;-68
2021/08/14 10:49:21;;;;;;;18.60;6.22;;;23.90;99.90;;;;;;5067006;28;20535;-69
2021/08/14 10:51:55;;;;;;;21.45;6.07;;;23.90;99.90;;;;;;5066838;28;20056;-68
2021/08/14 10:54:30;;;;;;;22.25;5.90;;;23.80;99.90;;;;;;5051503;28;20037;-69
2021/08/14 10:57:08;;;;;;;15.23;4.90;;;23.80;99.90;;;;;;5051986;28;20046;-71
2021/08/14 10:59:37;;;;;;;19.45;5.28;;;24.00;99.90;;;;;;5057641;28;20036;-69
2021/08/14 11:02:09;;;;;;;19.58;5.38;;;24.20;99.90;;;;;;5064500;28;20040;-68
2021/08/14 11:04:53;;;;;;;15.90;5.05;;;24.10;99.90;;;;;;5064292;28;20046;-68
2021/08/14 11:07:19;;;;;;;9.73;3.65;;;23.80;99.90;;;;;;5054695;28;20040;-69
2021/08/14 11:09:53;;;;;;;12.95;4.57;;;23.70;99.90;;;;;;5046016;28;20043;-68
2021/08/14 11:12:50;;;;;;;20.27;5.63;;;23.50;99.90;;;;;;5065149;28;20044;-68
2021/08/14 11:15:19;;;;;;;24.23;5.43;;;23.20;99.90;;;;;;5042737;28;20131;-69
2021/08/14 11:17:47;;;;;;;15.75;5.45;;;23.00;99.90;;;;;;5055360;28;20033;-68
2021/08/14 11:20:24;;;;;;;13.30;4.25;;;22.80;99.90;;;;;;5064213;28;20037;-68
2021/08/14 11:22:52;;;;;;;13.40;4.10;;;22.50;99.90;;;;;;5059605;28;20049;-69
2021/08/14 11:25:29;;;;;;;13.98;5.10;;;22.40;99.90;;;;;;5060117;28;20029;-69
2021/08/14 11:28:02;;;;;;;20.13;4.78;;;22.40;99.90;;;;;;5059409;28;20400;-68
2021/08/14 11:30:34;;;;;;;13.25;3.65;;;22.30;99.90;;;;;;5049246;28;20025;-68
2021/08/14 11:33:02;;;;;;;18.10;4.60;;;22.30;99.90;;;;;;5059062;28;20504;-69
2021/08/14 11:35:28;;;;;;;17.42;4.03;;;22.30;99.90;;;;;;5059212;28;20036;-70
2021/08/14 11:38:01;;;;;;;16.33;3.75;;;22.20;99.90;;;;;;5059350;28;20092;-69
2021/08/14 11:40:38;;;;;;;14.85;3.08;;;22.20;99.90;;;;;;5057619;28;20025;-69
2021/08/14 11:43:06;;;;;;;11.98;2.78;;;22.20;99.90;;;;;;5049470;28;20048;-68
2021/08/14 11:45:34;;;;;;;8.52;2.92;;;22.30;99.90;;;;;;5063355;28;20047;-70
2021/08/14 11:48:13;;;;;;;15.05;2.88;;;22.30;99.90;;;;;;5050444;28;20624;-69
2021/08/14 11:50:41;;;;;;;10.73;2.22;;;22.30;99.90;;;;;;5048237;28;20459;-69
2021/08/14 11:53:09;;;;;;;9.95;2.50;;;22.40;99.90;;;;;;5062377;28;20205;-69
2021/08/14 11:55:35;;;;;;;10.68;1.90;;;22.30;99.90;;;;;;5059614;28;20052;-69
2021/08/14 11:58:02;;;;;;;11.98;2.60;;;22.30;99.90;;;;;;5062509;28;20042;-68
2021/08/14 12:00:33;;;;;;;7.10;1.88;;;22.30;99.90;;;;;;5063428;28;20373;-68
2021/08/14 12:03:08;;;;;;;10.65;2.63;;;22.30;99.90;;;;;;5059323;28;20059;-68
2021/08/14 12:05:42;;;;;;;6.32;1.90;;;22.40;99.90;;;;;;5066242;28;20123;-69
2021/08/14 12:08:15;;;;;;;8.63;2.47;;;22.50;99.90;;;;;;5068421;28;20033;-68
2021/08/14 12:10:41;;;;;;;10.80;1.73;;;22.70;99.90;;;;;;5052598;28;20037;-69
2021/08/14 12:13:07;;;;;;;7.95;2.35;;;23.00;99.90;;;;;;5051524;28;20566;-70
2021/08/14 12:15:37;;;;;;;6.45;1.90;;;23.30;99.90;;;;;;5066018;28;20063;-69
2021/08/14 12:18:03;;;;;;;7.88;1.83;;;23.40;99.90;;;;;;5071621;28;20503;-69
2021/08/14 12:20:30;;;;;;;4.35;1.38;;;23.50;99.90;;;;;;5074451;28;20108;-69
2021/08/14 12:23:21;;;;;;;7.90;2.22;;;23.50;99.90;;;;;;5088057;28;20028;-68
2021/08/14 12:25:58;;;;;;;5.57;1.77;;;23.60;99.90;;;;;;5089477;28;20036;-69
2021/08/14 12:28:25;;;;;;;4.90;1.60;;;23.50;99.90;;;;;;5084584;28;20044;-68
2021/08/14 12:30:51;;;;;;;6.05;1.70;;;23.50;99.90;;;;;;5089637;28;20704;-69
2021/08/14 12:33:25;;;;;;;8.70;1.70;;;23.50;99.90;;;;;;5083582;28;20048;-71
2021/08/14 12:36:05;;;;;;;7.03;2.00;;;23.40;99.90;;;;;;5067858;28;20028;-69
2021/08/14 12:38:34;;;;;;;3.75;0.95;;;23.50;99.90;;;;;;5060003;28;20056;-68